createdAt,value
2023-02-28T00:02:32.960Z,25.23
2023-02-28T00:05:11.905Z,17.95
2023-02-28T00:10:34.903Z,18.42
2023-02-28T00:13:22.843Z,20.20
2023-02-28T00:16:09.370Z,18.30
2023-02-28T00:18:42.509Z,20.55
2023-02-28T00:21:14.581Z,19.33
2023-02-28T00:23:53.666Z,21.55
2023-02-28T00:26:28.976Z,24.02
2023-02-28T00:29:04.883Z,21.88
2023-02-28T00:31:55.495Z,25.67
2023-02-28T00:37:22.565Z,24.50
2023-02-28T00:40:06.263Z,24.40
2023-02-28T00:42:49.609Z,25.48
2023-02-28T00:46:21.861Z,18.85
2023-02-28T00:49:48.489Z,28.30
2023-02-28T00:52:43.040Z,21.65
2023-02-28T00:55:55.384Z,22.33
2023-02-28T01:53:12.331Z,21.90
2023-02-28T02:55:24.938Z,17.77
2023-02-28T02:58:53.042Z,22.83
2023-02-28T03:02:05.558Z,23.30
2023-02-28T03:05:50.630Z,17.65
2023-02-28T03:47:42.964Z,16.92
2023-02-28T03:51:37.704Z,17.73
2023-02-28T04:19:10.060Z,17.90
2023-02-28T04:22:29.917Z,23.60
2023-02-28T04:26:22.152Z,21.73
2023-02-28T04:32:52.661Z,25.23
2023-02-28T04:50:55.189Z,26.20
2023-02-28T04:53:39.765Z,27.92
2023-02-28T04:56:57.782Z,26.10
2023-02-28T05:03:20.204Z,28.15
2023-02-28T05:06:25.838Z,27.50
2023-02-28T05:09:01.931Z,34.53
2023-02-28T05:12:12.991Z,36.95
2023-02-28T05:15:24.670Z,34.83
2023-02-28T05:18:15.453Z,28.83
2023-02-28T05:21:53.506Z,33.38
2023-02-28T05:24:51.198Z,34.42
2023-02-28T05:28:22.130Z,29.52
2023-02-28T05:52:08.507Z,28.42
2023-02-28T05:55:22.707Z,30.30
2023-02-28T06:05:07.425Z,30.67
2023-02-28T06:08:39.575Z,34.20
2023-02-28T06:22:22.766Z,29.70
2023-02-28T06:38:51.662Z,43.67
2023-02-28T06:42:02.636Z,37.20
2023-02-28T06:44:46.772Z,37.55
2023-02-28T06:47:33.675Z,38.95
2023-02-28T06:50:07.985Z,49.50
2023-02-28T06:55:28.824Z,48.08
2023-02-28T06:58:07.077Z,41.90
2023-02-28T07:01:17.356Z,53.22
2023-02-28T07:03:57.983Z,67.25
2023-02-28T07:09:52.845Z,172.70
2023-02-28T07:12:47.688Z,104.78
2023-02-28T07:15:37.691Z,86.75
2023-02-28T07:18:25.352Z,74.05
2023-02-28T07:21:38.629Z,74.88
2023-02-28T07:24:15.036Z,78.00
2023-02-28T07:27:04.478Z,60.20
2023-02-28T07:29:45.346Z,91.97
2023-02-28T07:32:21.202Z,147.70
2023-02-28T07:34:53.522Z,103.50
2023-02-28T07:37:25.213Z,82.90
2023-02-28T07:39:53.817Z,87.70
2023-02-28T07:42:22.497Z,86.75
2023-02-28T07:44:52.703Z,103.65
2023-02-28T07:47:22.694Z,94.93
2023-02-28T07:49:52.420Z,73.15
2023-02-28T07:52:22.271Z,55.55
2023-02-28T07:54:50.586Z,35.50
2023-02-28T07:57:19.315Z,35.58
2023-02-28T07:59:47.587Z,35.42
2023-02-28T08:02:16.948Z,32.80
2023-02-28T08:04:45.984Z,39.80
2023-02-28T08:07:15.545Z,35.47
2023-02-28T08:09:46.392Z,26.75
2023-02-28T08:12:15.947Z,22.83
2023-02-28T08:14:44.871Z,25.98
2023-02-28T08:17:17.367Z,22.40
2023-02-28T08:19:48.204Z,26.88
2023-02-28T08:22:16.535Z,24.40
2023-02-28T08:24:46.805Z,21.92
2023-02-28T08:27:15.320Z,18.13
2023-02-28T08:29:43.594Z,23.08
2023-02-28T08:32:27.190Z,23.23
2023-02-28T08:34:57.647Z,18.50
2023-02-28T08:37:26.159Z,37.17
2023-02-28T08:39:56.590Z,25.90
2023-02-28T08:42:25.168Z,48.95
2023-02-28T08:44:53.488Z,113.40
2023-02-28T08:47:22.257Z,32.53
2023-02-28T08:49:51.089Z,21.23
2023-02-28T08:52:19.563Z,18.48
2023-02-28T08:54:49.496Z,17.70
2023-02-28T08:57:19.525Z,21.27
2023-02-28T08:59:50.586Z,19.42
2023-02-28T09:02:19.014Z,18.75
2023-02-28T09:04:50.010Z,13.63
2023-02-28T09:07:18.370Z,15.10
2023-02-28T09:09:55.708Z,18.13
2023-02-28T09:12:26.984Z,24.65
2023-02-28T09:14:55.385Z,23.08
2023-02-28T09:17:24.090Z,13.05
2023-02-28T09:19:59.262Z,12.65
2023-02-28T09:22:29.875Z,12.65
2023-02-28T09:25:06.735Z,15.25
2023-02-28T09:27:36.639Z,13.05
2023-02-28T09:30:06.462Z,12.65
2023-02-28T09:32:34.957Z,12.55
2023-02-28T09:35:03.367Z,15.00
2023-02-28T09:37:32.254Z,13.00
2023-02-28T09:40:02.218Z,22.02
2023-02-28T09:42:36.240Z,12.98
2023-02-28T09:45:14.379Z,11.27
2023-02-28T09:47:46.874Z,16.13
2023-02-28T09:50:23.128Z,14.02
2023-02-28T09:52:52.607Z,17.98
2023-02-28T09:55:27.571Z,11.95
2023-02-28T09:58:00.895Z,13.48
2023-02-28T10:00:36.419Z,12.73
2023-02-28T10:03:25.657Z,14.80
2023-02-28T10:05:58.726Z,12.88
2023-02-28T10:08:31.446Z,11.13
2023-02-28T10:11:02.785Z,26.92
2023-02-28T10:13:38.344Z,16.42
2023-02-28T10:16:12.890Z,19.75
2023-02-28T10:18:48.317Z,15.98
2023-02-28T10:21:23.287Z,37.30
2023-02-28T10:23:58.505Z,16.92
2023-02-28T10:26:31.593Z,13.93
2023-02-28T10:29:02.025Z,16.33
2023-02-28T10:31:30.614Z,13.43
2023-02-28T10:33:59.017Z,15.15
2023-02-28T10:36:27.991Z,15.90
2023-02-28T10:39:10.514Z,25.35
2023-02-28T10:41:45.058Z,43.25
2023-02-28T10:44:24.580Z,29.08
2023-02-28T10:46:53.592Z,109.88
2023-02-28T10:49:24.772Z,146.05
2023-02-28T10:51:57.903Z,136.43
2023-02-28T10:54:30.875Z,23.70
2023-02-28T10:57:18.789Z,22.30
2023-02-28T10:59:52.942Z,14.68
2023-02-28T11:05:30.144Z,18.65
2023-02-28T11:08:05.968Z,18.50
2023-02-28T11:10:35.956Z,16.98
2023-02-28T11:13:08.229Z,19.25
2023-02-28T11:15:39.146Z,18.65
2023-02-28T11:18:24.811Z,19.63
2023-02-28T11:20:56.603Z,18.80
2023-02-28T11:23:28.898Z,17.92
2023-02-28T11:26:01.110Z,19.65
2023-02-28T11:28:33.613Z,15.25
2023-02-28T11:31:17.908Z,17.73
2023-02-28T11:33:51.334Z,14.70
2023-02-28T11:36:25.804Z,21.70
2023-02-28T11:38:56.400Z,16.92
2023-02-28T11:41:44.060Z,22.80
2023-02-28T11:44:25.830Z,22.17
2023-02-28T11:47:01.201Z,19.95
2023-02-28T11:49:37.038Z,14.27
2023-02-28T11:52:12.905Z,18.08
2023-02-28T11:55:02.673Z,17.95
2023-02-28T11:57:45.785Z,19.80
2023-02-28T12:00:32.726Z,14.88
2023-02-28T12:03:13.814Z,18.60
2023-02-28T12:05:47.965Z,14.38
2023-02-28T12:08:28.458Z,20.80
2023-02-28T12:11:07.997Z,62.65
2023-02-28T12:13:48.460Z,29.50
2023-02-28T12:16:39.756Z,22.13
2023-02-28T12:19:22.564Z,22.50
2023-02-28T12:22:14.055Z,18.33
2023-02-28T12:24:57.108Z,15.23
2023-02-28T12:27:29.347Z,15.88
2023-02-28T12:30:01.181Z,15.98
2023-02-28T12:32:34.436Z,26.02
2023-02-28T12:35:08.754Z,16.55
2023-02-28T12:37:41.187Z,20.77
2023-02-28T12:40:14.890Z,27.23
2023-02-28T12:42:48.345Z,25.30
2023-02-28T12:45:21.828Z,18.73
2023-02-28T12:47:57.605Z,273.83
2023-02-28T12:50:29.321Z,140.50
2023-02-28T12:53:04.668Z,18.48
2023-02-28T12:55:40.450Z,15.70
2023-02-28T12:58:15.793Z,21.92
2023-02-28T13:01:00.741Z,38.95
2023-02-28T13:03:59.857Z,17.95
2023-02-28T13:07:01.195Z,23.92
2023-02-28T13:09:30.729Z,19.42
2023-02-28T13:12:00.376Z,19.55
2023-02-28T13:14:32.179Z,20.17
2023-02-28T13:17:04.735Z,21.42
2023-02-28T13:19:35.615Z,17.00
2023-02-28T13:22:06.843Z,27.50
2023-02-28T13:24:48.432Z,22.15
2023-02-28T13:27:41.116Z,20.17
2023-02-28T13:30:47.842Z,24.42
2023-02-28T13:33:35.420Z,22.33
2023-02-28T13:40:05.476Z,23.38
2023-02-28T14:47:42.343Z,20.98
2023-02-28T14:50:34.901Z,17.27
2023-02-28T14:53:06.460Z,23.38
2023-02-28T14:58:54.586Z,21.50
2023-02-28T15:18:54.350Z,21.98
2023-02-28T15:21:28.285Z,19.70
2023-02-28T15:24:18.107Z,22.90
2023-02-28T15:32:41.887Z,25.17
2023-02-28T15:35:41.997Z,23.58
2023-02-28T15:38:34.397Z,22.98
2023-02-28T15:41:09.208Z,19.83
2023-02-28T15:43:51.408Z,18.65
2023-02-28T15:46:24.675Z,18.10
2023-02-28T15:48:58.229Z,23.48
2023-02-28T15:51:31.817Z,22.70
2023-02-28T15:54:03.143Z,18.52
2023-02-28T15:56:40.425Z,22.67
2023-02-28T15:59:16.246Z,22.45
2023-02-28T16:01:44.808Z,22.63
2023-02-28T16:04:18.163Z,31.27
2023-02-28T16:06:47.319Z,29.50
2023-02-28T16:09:17.789Z,19.40
2023-02-28T16:11:49.658Z,22.55
2023-02-28T16:14:24.147Z,20.70
2023-02-28T16:16:54.204Z,19.90
2023-02-28T16:19:23.114Z,25.85
2023-02-28T16:21:52.345Z,21.02
2023-02-28T16:24:20.921Z,25.08
2023-02-28T16:26:53.443Z,22.25
2023-02-28T16:29:29.263Z,27.67
2023-02-28T16:31:58.076Z,20.25
2023-02-28T16:34:28.465Z,22.02
2023-02-28T16:36:57.126Z,25.23
2023-02-28T16:39:34.233Z,25.52
2023-02-28T16:42:10.766Z,25.75
2023-02-28T16:44:39.595Z,26.45
2023-02-28T16:47:08.715Z,25.55
2023-02-28T16:49:51.693Z,30.15
2023-02-28T16:52:20.665Z,27.13
2023-02-28T16:54:49.995Z,27.70
2023-02-28T16:58:11.352Z,37.60
2023-02-28T17:00:41.551Z,30.85
2023-02-28T17:03:32.582Z,30.75
2023-02-28T17:06:03.756Z,22.75
2023-02-28T17:11:22.687Z,28.92
2023-02-28T17:14:05.694Z,27.00
2023-02-28T17:16:51.954Z,29.67
2023-02-28T17:28:52.565Z,35.75
2023-02-28T17:42:50.192Z,31.48
2023-02-28T17:45:40.046Z,42.30
2023-02-28T17:48:19.430Z,39.10
2023-02-28T17:50:57.629Z,35.53
2023-02-28T17:53:46.464Z,31.58
2023-02-28T17:56:25.466Z,29.45
2023-02-28T17:59:04.523Z,26.58
2023-02-28T18:01:36.052Z,25.38
2023-02-28T18:08:23.238Z,27.25
2023-02-28T18:23:08.129Z,45.03
2023-02-28T18:25:45.027Z,70.63
2023-02-28T18:28:16.653Z,42.03
2023-02-28T18:30:51.115Z,44.75
2023-02-28T18:33:22.458Z,41.22
2023-02-28T18:36:17.486Z,34.15
2023-02-28T18:38:57.785Z,35.28
2023-02-28T18:41:31.292Z,34.63
2023-02-28T18:44:21.138Z,30.70
2023-02-28T18:52:22.079Z,34.45
2023-02-28T18:55:21.035Z,32.80
2023-02-28T18:58:04.810Z,34.85
2023-02-28T19:01:01.279Z,34.58
2023-02-28T19:03:45.001Z,41.40
2023-02-28T20:07:43.131Z,37.25
